sensor_id;sensor_type;location;lat;lon;timestamp;P1;durP1;ratioP1;P2;durP2;ratioP2
42832;SDS011;64089;51.478;5.692;2022-11-18T00:00:18;5.50;;;2.63;;
42832;SDS011;64089;51.478;5.692;2022-11-18T00:02:43;5.68;;;2.35;;
42832;SDS011;64089;51.478;5.692;2022-11-18T00:05:09;6.97;;;2.50;;
42832;SDS011;64089;51.478;5.692;2022-11-18T00:07:34;4.30;;;1.80;;
42832;SDS011;64089;51.478;5.692;2022-11-18T00:10:00;6.85;;;2.50;;
42832;SDS011;64089;51.478;5.692;2022-11-18T00:12:26;10.43;;;1.92;;
42832;SDS011;64089;51.478;5.692;2022-11-18T00:15:10;4.45;;;2.20;;
42832;SDS011;64089;51.478;5.692;2022-11-18T00:17:35;5.18;;;1.83;;
42832;SDS011;64089;51.478;5.692;2022-11-18T00:20:01;6.00;;;1.73;;
42832;SDS011;64089;51.478;5.692;2022-11-18T00:22:27;14.30;;;2.40;;
42832;SDS011;64089;51.478;5.692;2022-11-18T00:24:52;6.70;;;2.15;;
42832;SDS011;64089;51.478;5.692;2022-11-18T00:27:18;5.68;;;1.77;;
42832;SDS011;64089;51.478;5.692;2022-11-18T00:29:43;5.15;;;1.83;;
42832;SDS011;64089;51.478;5.692;2022-11-18T00:32:09;4.97;;;2.00;;
42832;SDS011;64089;51.478;5.692;2022-11-18T00:34:34;3.65;;;1.80;;
42832;SDS011;64089;51.478;5.692;2022-11-18T00:37:00;7.10;;;1.42;;
42832;SDS011;64089;51.478;5.692;2022-11-18T00:39:26;5.00;;;1.83;;
42832;SDS011;64089;51.478;5.692;2022-11-18T00:41:51;8.32;;;2.00;;
42832;SDS011;64089;51.478;5.692;2022-11-18T00:44:36;3.60;;;1.55;;
42832;SDS011;64089;51.478;5.692;2022-11-18T00:47:01;3.95;;;1.17;;
42832;SDS011;64089;51.478;5.692;2022-11-18T00:49:27;8.65;;;2.33;;
42832;SDS011;64089;51.478;5.692;2022-11-18T00:51:53;6.63;;;1.98;;
42832;SDS011;64089;51.478;5.692;2022-11-18T00:54:19;4.65;;;1.58;;
42832;SDS011;64089;51.478;5.692;2022-11-18T00:56:45;4.13;;;1.83;;
42832;SDS011;64089;51.478;5.692;2022-11-18T00:59:10;2.92;;;1.40;;
42832;SDS011;64089;51.478;5.692;2022-11-18T01:01:36;6.00;;;1.60;;
42832;SDS011;64089;51.478;5.692;2022-11-18T01:04:01;4.72;;;1.58;;
42832;SDS011;64089;51.478;5.692;2022-11-18T01:06:27;8.43;;;1.50;;
42832;SDS011;64089;51.478;5.692;2022-11-18T01:08:53;6.13;;;2.03;;
42832;SDS011;64089;51.478;5.692;2022-11-18T01:11:19;1.60;;;0.82;;
42832;SDS011;64089;51.478;5.692;2022-11-18T01:14:03;7.57;;;1.98;;
42832;SDS011;64089;51.478;5.692;2022-11-18T01:16:29;3.60;;;1.27;;
42832;SDS011;64089;51.478;5.692;2022-11-18T01:18:55;6.80;;;1.48;;
42832;SDS011;64089;51.478;5.692;2022-11-18T01:21:21;4.45;;;1.75;;
42832;SDS011;64089;51.478;5.692;2022-11-18T01:23:47;6.70;;;1.80;;
42832;SDS011;64089;51.478;5.692;2022-11-18T01:26:13;9.38;;;1.40;;
42832;SDS011;64089;51.478;5.692;2022-11-18T01:28:41;7.50;;;1.60;;
42832;SDS011;64089;51.478;5.692;2022-11-18T01:31:09;5.28;;;1.77;;
42832;SDS011;64089;51.478;5.692;2022-11-18T01:33:36;6.07;;;1.30;;
42832;SDS011;64089;51.478;5.692;2022-11-18T01:36:02;6.65;;;1.65;;
42832;SDS011;64089;51.478;5.692;2022-11-18T01:38:28;4.53;;;1.80;;
42832;SDS011;64089;51.478;5.692;2022-11-18T01:40:54;5.63;;;1.67;;
42832;SDS011;64089;51.478;5.692;2022-11-18T01:43:20;4.30;;;1.75;;
42832;SDS011;64089;51.478;5.692;2022-11-18T01:45:48;4.35;;;1.50;;
42832;SDS011;64089;51.478;5.692;2022-11-18T01:50:58;4.75;;;1.52;;
42832;SDS011;64089;51.478;5.692;2022-11-18T01:53:33;3.53;;;1.08;;
42832;SDS011;64089;51.478;5.692;2022-11-18T01:56:03;6.30;;;1.42;;
42832;SDS011;64089;51.478;5.692;2022-11-18T01:58:40;2.85;;;1.50;;
42832;SDS011;64089;51.478;5.692;2022-11-18T02:01:18;9.02;;;2.22;;
42832;SDS011;64089;51.478;5.692;2022-11-18T02:03:43;3.30;;;1.60;;
42832;SDS011;64089;51.478;5.692;2022-11-18T02:06:10;4.45;;;1.25;;
42832;SDS011;64089;51.478;5.692;2022-11-18T02:08:35;4.38;;;1.23;;
42832;SDS011;64089;51.478;5.692;2022-11-18T02:11:03;5.63;;;1.05;;
42832;SDS011;64089;51.478;5.692;2022-11-18T02:13:33;4.35;;;1.63;;
42832;SDS011;64089;51.478;5.692;2022-11-18T02:16:04;5.47;;;1.83;;
42832;SDS011;64089;51.478;5.692;2022-11-18T02:21:20;1.92;;;1.30;;
42832;SDS011;64089;51.478;5.692;2022-11-18T02:29:55;2.83;;;1.38;;
42832;SDS011;64089;51.478;5.692;2022-11-18T02:32:23;5.35;;;1.23;;
42832;SDS011;64089;51.478;5.692;2022-11-18T02:34:58;5.07;;;1.30;;
42832;SDS011;64089;51.478;5.692;2022-11-18T02:42:44;3.83;;;1.27;;
42832;SDS011;64089;51.478;5.692;2022-11-18T02:45:14;4.18;;;1.40;;
42832;SDS011;64089;51.478;5.692;2022-11-18T02:47:42;6.13;;;1.30;;
42832;SDS011;64089;51.478;5.692;2022-11-18T02:50:11;7.93;;;1.27;;
42832;SDS011;64089;51.478;5.692;2022-11-18T02:52:41;2.10;;;1.33;;
42832;SDS011;64089;51.478;5.692;2022-11-18T02:55:09;7.15;;;1.40;;
42832;SDS011;64089;51.478;5.692;2022-11-18T02:57:36;4.43;;;1.70;;
42832;SDS011;64089;51.478;5.692;2022-11-18T03:00:04;4.38;;;1.63;;
42832;SDS011;64089;51.478;5.692;2022-11-18T03:02:39;3.38;;;1.27;;
42832;SDS011;64089;51.478;5.692;2022-11-18T03:05:06;5.40;;;1.50;;
42832;SDS011;64089;51.478;5.692;2022-11-18T03:07:41;5.53;;;1.75;;
42832;SDS011;64089;51.478;5.692;2022-11-18T03:10:09;3.33;;;1.42;;
42832;SDS011;64089;51.478;5.692;2022-11-18T03:12:41;2.67;;;1.30;;
42832;SDS011;64089;51.478;5.692;2022-11-18T03:15:33;2.83;;;1.23;;
42832;SDS011;64089;51.478;5.692;2022-11-18T03:18:02;2.25;;;1.38;;
42832;SDS011;64089;51.478;5.692;2022-11-18T03:20:47;8.95;;;1.48;;
42832;SDS011;64089;51.478;5.692;2022-11-18T03:23:23;5.30;;;1.27;;
42832;SDS011;64089;51.478;5.692;2022-11-18T03:26:11;6.60;;;1.30;;
42832;SDS011;64089;51.478;5.692;2022-11-18T03:28:47;1.20;;;1.10;;
42832;SDS011;64089;51.478;5.692;2022-11-18T03:31:20;6.78;;;1.65;;
42832;SDS011;64089;51.478;5.692;2022-11-18T03:33:57;4.85;;;1.38;;
42832;SDS011;64089;51.478;5.692;2022-11-18T03:36:27;6.88;;;1.88;;
42832;SDS011;64089;51.478;5.692;2022-11-18T03:38:58;4.80;;;2.10;;
42832;SDS011;64089;51.478;5.692;2022-11-18T03:41:27;4.68;;;1.35;;
42832;SDS011;64089;51.478;5.692;2022-11-18T03:43:56;25.98;;;2.42;;
42832;SDS011;64089;51.478;5.692;2022-11-18T03:47:03;6.97;;;1.33;;
42832;SDS011;64089;51.478;5.692;2022-11-18T03:49:29;6.28;;;1.52;;
42832;SDS011;64089;51.478;5.692;2022-11-18T03:52:08;4.35;;;1.40;;
42832;SDS011;64089;51.478;5.692;2022-11-18T03:54:39;4.60;;;1.85;;
42832;SDS011;64089;51.478;5.692;2022-11-18T03:57:08;2.20;;;1.42;;
42832;SDS011;64089;51.478;5.692;2022-11-18T04:00:03;6.93;;;1.60;;
42832;SDS011;64089;51.478;5.692;2022-11-18T04:02:32;15.18;;;1.35;;
42832;SDS011;64089;51.478;5.692;2022-11-18T04:04:59;6.90;;;1.45;;
42832;SDS011;64089;51.478;5.692;2022-11-18T04:10:16;7.95;;;2.13;;
42832;SDS011;64089;51.478;5.692;2022-11-18T04:12:43;7.30;;;1.58;;
42832;SDS011;64089;51.478;5.692;2022-11-18T04:15:14;6.47;;;1.67;;
42832;SDS011;64089;51.478;5.692;2022-11-18T04:17:40;6.43;;;1.45;;
42832;SDS011;64089;51.478;5.692;2022-11-18T04:20:13;3.08;;;1.48;;
42832;SDS011;64089;51.478;5.692;2022-11-18T04:22:42;7.70;;;1.90;;
42832;SDS011;64089;51.478;5.692;2022-11-18T04:25:08;9.45;;;2.28;;
42832;SDS011;64089;51.478;5.692;2022-11-18T04:27:33;2.72;;;1.85;;
42832;SDS011;64089;51.478;5.692;2022-11-18T04:29:59;6.32;;;1.20;;
42832;SDS011;64089;51.478;5.692;2022-11-18T04:32:24;6.40;;;2.30;;
42832;SDS011;64089;51.478;5.692;2022-11-18T04:34:50;4.15;;;1.48;;
42832;SDS011;64089;51.478;5.692;2022-11-18T04:37:16;2.83;;;1.42;;
42832;SDS011;64089;51.478;5.692;2022-11-18T04:39:41;5.30;;;1.73;;
42832;SDS011;64089;51.478;5.692;2022-11-18T04:42:07;4.07;;;1.70;;
42832;SDS011;64089;51.478;5.692;2022-11-18T04:44:33;3.13;;;1.45;;
42832;SDS011;64089;51.478;5.692;2022-11-18T04:46:59;2.15;;;1.40;;
42832;SDS011;64089;51.478;5.692;2022-11-18T04:49:28;3.30;;;1.85;;
42832;SDS011;64089;51.478;5.692;2022-11-18T04:51:54;5.47;;;1.40;;
42832;SDS011;64089;51.478;5.692;2022-11-18T04:54:21;4.63;;;1.48;;
42832;SDS011;64089;51.478;5.692;2022-11-18T04:56:47;3.65;;;1.35;;
42832;SDS011;64089;51.478;5.692;2022-11-18T04:59:14;3.28;;;1.50;;
42832;SDS011;64089;51.478;5.692;2022-11-18T05:01:41;2.72;;;1.60;;
42832;SDS011;64089;51.478;5.692;2022-11-18T05:04:06;5.32;;;1.90;;
42832;SDS011;64089;51.478;5.692;2022-11-18T05:06:36;5.22;;;1.40;;
42832;SDS011;64089;51.478;5.692;2022-11-18T05:09:02;2.67;;;1.63;;
42832;SDS011;64089;51.478;5.692;2022-11-18T05:11:27;3.85;;;1.77;;
42832;SDS011;64089;51.478;5.692;2022-11-18T05:14:12;4.90;;;1.85;;
42832;SDS011;64089;51.478;5.692;2022-11-18T05:16:38;5.07;;;2.40;;
42832;SDS011;64089;51.478;5.692;2022-11-18T05:19:04;3.75;;;1.30;;
42832;SDS011;64089;51.478;5.692;2022-11-18T05:21:30;4.50;;;1.63;;
42832;SDS011;64089;51.478;5.692;2022-11-18T05:23:57;4.55;;;1.45;;
42832;SDS011;64089;51.478;5.692;2022-11-18T05:26:23;5.07;;;1.90;;
42832;SDS011;64089;51.478;5.692;2022-11-18T05:28:49;5.63;;;2.00;;
42832;SDS011;64089;51.478;5.692;2022-11-18T05:31:16;5.53;;;2.00;;
42832;SDS011;64089;51.478;5.692;2022-11-18T05:33:42;8.70;;;2.15;;
42832;SDS011;64089;51.478;5.692;2022-11-18T05:36:09;6.38;;;1.95;;
42832;SDS011;64089;51.478;5.692;2022-11-18T05:38:36;6.70;;;2.15;;
42832;SDS011;64089;51.478;5.692;2022-11-18T05:41:02;3.30;;;2.13;;
42832;SDS011;64089;51.478;5.692;2022-11-18T05:43:29;6.65;;;1.50;;
42832;SDS011;64089;51.478;5.692;2022-11-18T05:45:55;3.70;;;1.33;;
42832;SDS011;64089;51.478;5.692;2022-11-18T05:48:21;9.02;;;1.50;;
42832;SDS011;64089;51.478;5.692;2022-11-18T05:50:48;2.72;;;1.45;;
42832;SDS011;64089;51.478;5.692;2022-11-18T05:53:16;8.82;;;1.98;;
42832;SDS011;64089;51.478;5.692;2022-11-18T05:55:59;10.68;;;1.90;;
42832;SDS011;64089;51.478;5.692;2022-11-18T05:58:30;4.78;;;1.42;;
42832;SDS011;64089;51.478;5.692;2022-11-18T06:00:57;2.40;;;1.27;;
42832;SDS011;64089;51.478;5.692;2022-11-18T06:03:29;3.75;;;2.08;;
42832;SDS011;64089;51.478;5.692;2022-11-18T06:05:58;7.20;;;1.70;;
42832;SDS011;64089;51.478;5.692;2022-11-18T06:08:28;3.35;;;1.40;;
42832;SDS011;64089;51.478;5.692;2022-11-18T06:10:58;4.65;;;1.60;;
42832;SDS011;64089;51.478;5.692;2022-11-18T06:13:26;6.30;;;1.98;;
42832;SDS011;64089;51.478;5.692;2022-11-18T06:15:54;13.60;;;1.92;;
42832;SDS011;64089;51.478;5.692;2022-11-18T06:18:22;3.55;;;1.60;;
42832;SDS011;64089;51.478;5.692;2022-11-18T06:20:53;3.97;;;1.90;;
42832;SDS011;64089;51.478;5.692;2022-11-18T06:23:24;4.93;;;1.50;;
42832;SDS011;64089;51.478;5.692;2022-11-18T06:25:54;3.28;;;1.95;;
42832;SDS011;64089;51.478;5.692;2022-11-18T06:28:21;5.45;;;2.03;;
42832;SDS011;64089;51.478;5.692;2022-11-18T06:30:47;3.65;;;2.10;;
42832;SDS011;64089;51.478;5.692;2022-11-18T06:33:13;2.42;;;1.60;;
42832;SDS011;64089;51.478;5.692;2022-11-18T06:35:41;8.65;;;2.97;;
42832;SDS011;64089;51.478;5.692;2022-11-18T06:38:06;5.13;;;2.22;;
42832;SDS011;64089;51.478;5.692;2022-11-18T06:40:32;13.30;;;2.83;;
42832;SDS011;64089;51.478;5.692;2022-11-18T06:43:03;5.90;;;2.15;;
42832;SDS011;64089;51.478;5.692;2022-11-18T06:45:51;9.52;;;2.38;;
42832;SDS011;64089;51.478;5.692;2022-11-18T06:48:35;12.45;;;2.17;;
42832;SDS011;64089;51.478;5.692;2022-11-18T06:51:03;6.32;;;2.42;;
42832;SDS011;64089;51.478;5.692;2022-11-18T06:53:30;9.10;;;2.28;;
42832;SDS011;64089;51.478;5.692;2022-11-18T06:55:55;5.13;;;2.17;;
42832;SDS011;64089;51.478;5.692;2022-11-18T06:58:21;6.68;;;2.35;;
42832;SDS011;64089;51.478;5.692;2022-11-18T07:00:46;4.22;;;2.50;;
42832;SDS011;64089;51.478;5.692;2022-11-18T07:03:12;10.07;;;2.58;;
42832;SDS011;64089;51.478;5.692;2022-11-18T07:05:37;7.93;;;2.88;;
42832;SDS011;64089;51.478;5.692;2022-11-18T07:08:03;5.28;;;2.38;;
42832;SDS011;64089;51.478;5.692;2022-11-18T07:10:29;5.82;;;3.08;;
42832;SDS011;64089;51.478;5.692;2022-11-18T07:12:54;8.35;;;2.95;;
42832;SDS011;64089;51.478;5.692;2022-11-18T07:15:20;8.05;;;2.70;;
42832;SDS011;64089;51.478;5.692;2022-11-18T07:17:46;5.45;;;2.60;;
42832;SDS011;64089;51.478;5.692;2022-11-18T07:20:11;5.70;;;2.30;;
42832;SDS011;64089;51.478;5.692;2022-11-18T07:22:37;3.17;;;2.45;;
42832;SDS011;64089;51.478;5.692;2022-11-18T07:25:02;5.32;;;2.63;;
42832;SDS011;64089;51.478;5.692;2022-11-18T07:27:28;5.50;;;2.63;;
42832;SDS011;64089;51.478;5.692;2022-11-18T07:29:54;6.22;;;2.50;;
42832;SDS011;64089;51.478;5.692;2022-11-18T07:32:19;6.03;;;2.40;;
42832;SDS011;64089;51.478;5.692;2022-11-18T07:34:45;12.05;;;3.13;;
42832;SDS011;64089;51.478;5.692;2022-11-18T07:37:10;4.10;;;1.90;;
42832;SDS011;64089;51.478;5.692;2022-11-18T07:39:36;10.27;;;2.78;;
42832;SDS011;64089;51.478;5.692;2022-11-18T07:42:04;5.85;;;2.63;;
42832;SDS011;64089;51.478;5.692;2022-11-18T07:44:29;4.55;;;2.22;;
42832;SDS011;64089;51.478;5.692;2022-11-18T07:46:55;9.30;;;2.88;;
42832;SDS011;64089;51.478;5.692;2022-11-18T07:49:20;8.60;;;2.67;;
42832;SDS011;64089;51.478;5.692;2022-11-18T07:51:46;6.07;;;2.78;;
42832;SDS011;64089;51.478;5.692;2022-11-18T07:54:12;9.50;;;2.63;;
42832;SDS011;64089;51.478;5.692;2022-11-18T07:56:40;5.95;;;2.60;;
42832;SDS011;64089;51.478;5.692;2022-11-18T07:59:06;10.18;;;4.45;;
42832;SDS011;64089;51.478;5.692;2022-11-18T08:01:31;10.48;;;3.42;;
42832;SDS011;64089;51.478;5.692;2022-11-18T08:04:02;7.55;;;3.17;;
42832;SDS011;64089;51.478;5.692;2022-11-18T08:06:30;7.38;;;2.67;;
42832;SDS011;64089;51.478;5.692;2022-11-18T08:08:57;7.10;;;2.97;;
42832;SDS011;64089;51.478;5.692;2022-11-18T08:11:22;11.43;;;3.75;;
42832;SDS011;64089;51.478;5.692;2022-11-18T08:13:48;8.90;;;3.35;;
42832;SDS011;64089;51.478;5.692;2022-11-18T08:16:16;5.07;;;2.92;;
42832;SDS011;64089;51.478;5.692;2022-11-18T08:18:44;8.85;;;2.88;;
42832;SDS011;64089;51.478;5.692;2022-11-18T08:21:10;10.10;;;2.78;;
42832;SDS011;64089;51.478;5.692;2022-11-18T08:23:36;7.55;;;3.92;;
42832;SDS011;64089;51.478;5.692;2022-11-18T08:26:07;8.35;;;2.80;;
42832;SDS011;64089;51.478;5.692;2022-11-18T08:28:33;6.70;;;3.13;;
42832;SDS011;64089;51.478;5.692;2022-11-18T08:30:59;7.60;;;3.17;;
42832;SDS011;64089;51.478;5.692;2022-11-18T08:33:24;5.78;;;2.88;;
42832;SDS011;64089;51.478;5.692;2022-11-18T08:35:50;4.13;;;2.60;;
42832;SDS011;64089;51.478;5.692;2022-11-18T08:38:16;5.13;;;3.08;;
42832;SDS011;64089;51.478;5.692;2022-11-18T08:40:43;11.52;;;2.80;;
42832;SDS011;64089;51.478;5.692;2022-11-18T08:43:10;7.22;;;2.28;;
42832;SDS011;64089;51.478;5.692;2022-11-18T08:45:39;5.75;;;2.65;;
42832;SDS011;64089;51.478;5.692;2022-11-18T08:48:05;6.57;;;2.28;;
42832;SDS011;64089;51.478;5.692;2022-11-18T08:50:31;5.30;;;2.38;;
42832;SDS011;64089;51.478;5.692;2022-11-18T08:52:56;6.22;;;2.45;;
42832;SDS011;64089;51.478;5.692;2022-11-18T08:55:22;2.38;;;1.65;;
42832;SDS011;64089;51.478;5.692;2022-11-18T08:57:47;5.05;;;2.53;;
42832;SDS011;64089;51.478;5.692;2022-11-18T09:00:13;8.90;;;2.42;;
42832;SDS011;64089;51.478;5.692;2022-11-18T09:02:39;4.25;;;2.35;;
42832;SDS011;64089;51.478;5.692;2022-11-18T09:05:05;6.68;;;2.83;;
42832;SDS011;64089;51.478;5.692;2022-11-18T09:07:31;8.85;;;2.50;;
42832;SDS011;64089;51.478;5.692;2022-11-18T09:09:56;10.63;;;2.45;;
42832;SDS011;64089;51.478;5.692;2022-11-18T09:12:22;6.05;;;2.58;;
42832;SDS011;64089;51.478;5.692;2022-11-18T09:14:47;8.48;;;2.50;;
42832;SDS011;64089;51.478;5.692;2022-11-18T09:17:13;5.68;;;1.92;;
42832;SDS011;64089;51.478;5.692;2022-11-18T09:19:39;5.68;;;1.75;;
42832;SDS011;64089;51.478;5.692;2022-11-18T09:22:05;45.45;;;20.92;;
42832;SDS011;64089;51.478;5.692;2022-11-18T09:24:31;31.30;;;14.60;;
42832;SDS011;64089;51.478;5.692;2022-11-18T09:26:57;93.53;;;44.08;;
42832;SDS011;64089;51.478;5.692;2022-11-18T09:29:23;25.75;;;10.35;;
42832;SDS011;64089;51.478;5.692;2022-11-18T09:31:50;9.25;;;3.70;;
42832;SDS011;64089;51.478;5.692;2022-11-18T09:34:18;6.53;;;2.03;;
42832;SDS011;64089;51.478;5.692;2022-11-18T09:36:44;5.25;;;1.85;;
42832;SDS011;64089;51.478;5.692;2022-11-18T09:39:10;6.80;;;1.90;;
42832;SDS011;64089;51.478;5.692;2022-11-18T09:51:55;4.95;;;1.80;;
42832;SDS011;64089;51.478;5.692;2022-11-18T09:54:26;35.80;;;16.02;;
42832;SDS011;64089;51.478;5.692;2022-11-18T09:56:55;74.10;;;33.25;;
42832;SDS011;64089;51.478;5.692;2022-11-18T09:59:22;123.25;;;54.65;;
42832;SDS011;64089;51.478;5.692;2022-11-18T10:01:51;89.68;;;39.92;;
42832;SDS011;64089;51.478;5.692;2022-11-18T10:04:20;15.13;;;7.53;;
42832;SDS011;64089;51.478;5.692;2022-11-18T10:06:47;7.60;;;2.10;;
42832;SDS011;64089;51.478;5.692;2022-11-18T10:18:05;4.88;;;2.35;;
42832;SDS011;64089;51.478;5.692;2022-11-18T10:20:54;26.80;;;3.03;;
42832;SDS011;64089;51.478;5.692;2022-11-18T10:23:43;5.32;;;1.80;;
42832;SDS011;64089;51.478;5.692;2022-11-18T10:26:30;8.15;;;1.83;;
42832;SDS011;64089;51.478;5.692;2022-11-18T10:28:56;3.05;;;1.88;;
42832;SDS011;64089;51.478;5.692;2022-11-18T10:31:22;4.30;;;1.45;;
42832;SDS011;64089;51.478;5.692;2022-11-18T10:33:48;6.05;;;2.38;;
42832;SDS011;64089;51.478;5.692;2022-11-18T10:39:26;2.10;;;1.48;;
42832;SDS011;64089;51.478;5.692;2022-11-18T10:41:48;4.50;;;1.60;;
42832;SDS011;64089;51.478;5.692;2022-11-18T10:44:38;2.88;;;1.63;;
42832;SDS011;64089;51.478;5.692;2022-11-18T10:47:14;5.60;;;2.00;;
42832;SDS011;64089;51.478;5.692;2022-11-18T10:49:43;7.63;;;1.60;;
42832;SDS011;64089;51.478;5.692;2022-11-18T10:52:10;4.45;;;1.70;;
42832;SDS011;64089;51.478;5.692;2022-11-18T10:54:37;2.03;;;1.52;;
42832;SDS011;64089;51.478;5.692;2022-11-18T11:02:34;6.72;;;2.15;;
42832;SDS011;64089;51.478;5.692;2022-11-18T11:05:18;3.00;;;1.23;;
42832;SDS011;64089;51.478;5.692;2022-11-18T11:07:46;7.57;;;1.70;;
42832;SDS011;64089;51.478;5.692;2022-11-18T11:10:29;4.15;;;1.70;;
42832;SDS011;64089;51.478;5.692;2022-11-18T11:12:56;10.27;;;1.83;;
42832;SDS011;64089;51.478;5.692;2022-11-18T11:17:56;3.67;;;1.45;;
42832;SDS011;64089;51.478;5.692;2022-11-18T11:20:42;5.85;;;1.55;;
42832;SDS011;64089;51.478;5.692;2022-11-18T11:23:12;7.20;;;1.85;;
42832;SDS011;64089;51.478;5.692;2022-11-18T11:31:20;8.10;;;1.60;;
42832;SDS011;64089;51.478;5.692;2022-11-18T11:33:58;28.00;;;11.15;;
42832;SDS011;64089;51.478;5.692;2022-11-18T11:36:51;51.78;;;22.40;;
42832;SDS011;64089;51.478;5.692;2022-11-18T11:39:52;66.95;;;28.48;;
42832;SDS011;64089;51.478;5.692;2022-11-18T11:48:03;2.50;;;1.35;;
42832;SDS011;64089;51.478;5.692;2022-11-18T11:50:55;8.85;;;2.33;;
42832;SDS011;64089;51.478;5.692;2022-11-18T11:56:26;10.73;;;2.15;;
42832;SDS011;64089;51.478;5.692;2022-11-18T12:07:22;4.50;;;1.83;;
42832;SDS011;64089;51.478;5.692;2022-11-18T12:15:18;5.18;;;1.75;;
42832;SDS011;64089;51.478;5.692;2022-11-18T12:20:41;4.63;;;1.85;;
42832;SDS011;64089;51.478;5.692;2022-11-18T12:23:21;6.57;;;1.77;;
42832;SDS011;64089;51.478;5.692;2022-11-18T12:25:50;7.22;;;1.95;;
42832;SDS011;64089;51.478;5.692;2022-11-18T12:33:55;3.97;;;1.40;;
42832;SDS011;64089;51.478;5.692;2022-11-18T12:38:57;7.30;;;2.47;;
42832;SDS011;64089;51.478;5.692;2022-11-18T12:44:28;7.10;;;1.60;;
42832;SDS011;64089;51.478;5.692;2022-11-18T12:46:59;6.70;;;1.88;;
42832;SDS011;64089;51.478;5.692;2022-11-18T12:54:24;5.47;;;1.90;;
42832;SDS011;64089;51.478;5.692;2022-11-18T13:02:54;2.83;;;2.13;;
42832;SDS011;64089;51.478;5.692;2022-11-18T13:05:25;6.97;;;2.20;;
42832;SDS011;64089;51.478;5.692;2022-11-18T13:13:24;10.15;;;2.97;;
42832;SDS011;64089;51.478;5.692;2022-11-18T13:15:53;6.15;;;1.92;;
42832;SDS011;64089;51.478;5.692;2022-11-18T13:18:46;8.82;;;1.98;;
42832;SDS011;64089;51.478;5.692;2022-11-18T13:21:20;9.70;;;2.05;;
42832;SDS011;64089;51.478;5.692;2022-11-18T13:24:05;9.00;;;2.60;;
42832;SDS011;64089;51.478;5.692;2022-11-18T13:26:34;5.80;;;2.83;;
42832;SDS011;64089;51.478;5.692;2022-11-18T13:32:21;13.70;;;2.42;;
42832;SDS011;64089;51.478;5.692;2022-11-18T13:37:22;9.70;;;2.22;;
42832;SDS011;64089;51.478;5.692;2022-11-18T13:39:52;5.28;;;1.95;;
42832;SDS011;64089;51.478;5.692;2022-11-18T13:42:20;10.57;;;2.85;;
42832;SDS011;64089;51.478;5.692;2022-11-18T13:44:54;8.00;;;2.03;;
42832;SDS011;64089;51.478;5.692;2022-11-18T13:52:29;13.07;;;2.75;;
42832;SDS011;64089;51.478;5.692;2022-11-18T13:55:05;9.65;;;3.13;;
42832;SDS011;64089;51.478;5.692;2022-11-18T13:57:58;11.73;;;2.55;;
42832;SDS011;64089;51.478;5.692;2022-11-18T14:00:27;9.10;;;2.53;;
42832;SDS011;64089;51.478;5.692;2022-11-18T14:02:56;13.63;;;2.72;;
42832;SDS011;64089;51.478;5.692;2022-11-18T14:05:26;6.13;;;1.70;;
42832;SDS011;64089;51.478;5.692;2022-11-18T14:07:56;7.10;;;2.45;;
42832;SDS011;64089;51.478;5.692;2022-11-18T14:10:30;9.07;;;2.03;;
42832;SDS011;64089;51.478;5.692;2022-11-18T14:12:58;7.25;;;2.20;;
42832;SDS011;64089;51.478;5.692;2022-11-18T14:17:54;11.75;;;2.97;;
42832;SDS011;64089;51.478;5.692;2022-11-18T14:20:22;4.78;;;2.35;;
42832;SDS011;64089;51.478;5.692;2022-11-18T14:22:51;20.45;;;3.30;;
42832;SDS011;64089;51.478;5.692;2022-11-18T14:25:23;8.07;;;4.88;;
42832;SDS011;64089;51.478;5.692;2022-11-18T14:30:41;10.18;;;4.22;;
42832;SDS011;64089;51.478;5.692;2022-11-18T14:33:20;7.35;;;3.40;;
42832;SDS011;64089;51.478;5.692;2022-11-18T14:35:55;8.73;;;2.90;;
42832;SDS011;64089;51.478;5.692;2022-11-18T14:38:24;14.07;;;3.40;;
42832;SDS011;64089;51.478;5.692;2022-11-18T14:41:03;9.75;;;2.63;;
42832;SDS011;64089;51.478;5.692;2022-11-18T14:43:31;10.30;;;2.60;;
42832;SDS011;64089;51.478;5.692;2022-11-18T14:45:57;12.23;;;2.88;;
42832;SDS011;64089;51.478;5.692;2022-11-18T14:48:45;7.25;;;4.30;;
42832;SDS011;64089;51.478;5.692;2022-11-18T14:51:12;11.13;;;3.53;;
42832;SDS011;64089;51.478;5.692;2022-11-18T14:53:39;14.10;;;3.10;;
42832;SDS011;64089;51.478;5.692;2022-11-18T14:56:07;11.82;;;3.13;;
42832;SDS011;64089;51.478;5.692;2022-11-18T14:58:44;3.60;;;2.30;;
42832;SDS011;64089;51.478;5.692;2022-11-18T15:01:10;8.10;;;2.88;;
42832;SDS011;64089;51.478;5.692;2022-11-18T15:03:37;4.32;;;2.40;;
42832;SDS011;64089;51.478;5.692;2022-11-18T15:06:03;10.45;;;3.08;;
42832;SDS011;64089;51.478;5.692;2022-11-18T15:08:41;10.40;;;4.03;;
42832;SDS011;64089;51.478;5.692;2022-11-18T15:11:07;5.18;;;2.55;;
42832;SDS011;64089;51.478;5.692;2022-11-18T15:13:33;12.30;;;2.53;;
42832;SDS011;64089;51.478;5.692;2022-11-18T15:15:59;6.38;;;2.55;;
42832;SDS011;64089;51.478;5.692;2022-11-18T15:18:30;6.38;;;1.75;;
42832;SDS011;64089;51.478;5.692;2022-11-18T15:20:55;5.85;;;1.98;;
42832;SDS011;64089;51.478;5.692;2022-11-18T15:23:21;6.07;;;1.63;;
42832;SDS011;64089;51.478;5.692;2022-11-18T15:25:46;3.58;;;1.45;;
42832;SDS011;64089;51.478;5.692;2022-11-18T15:28:12;12.55;;;2.33;;
42832;SDS011;64089;51.478;5.692;2022-11-18T15:30:38;4.07;;;2.03;;
42832;SDS011;64089;51.478;5.692;2022-11-18T15:33:03;9.30;;;2.20;;
42832;SDS011;64089;51.478;5.692;2022-11-18T15:35:29;7.13;;;2.92;;
42832;SDS011;64089;51.478;5.692;2022-11-18T15:37:54;7.35;;;3.40;;
42832;SDS011;64089;51.478;5.692;2022-11-18T15:40:20;6.20;;;2.80;;
42832;SDS011;64089;51.478;5.692;2022-11-18T15:42:46;9.80;;;3.75;;
42832;SDS011;64089;51.478;5.692;2022-11-18T15:45:11;5.88;;;3.42;;
42832;SDS011;64089;51.478;5.692;2022-11-18T15:47:37;2.83;;;1.85;;
42832;SDS011;64089;51.478;5.692;2022-11-18T15:50:02;4.35;;;2.20;;
42832;SDS011;64089;51.478;5.692;2022-11-18T15:52:28;9.73;;;2.45;;
42832;SDS011;64089;51.478;5.692;2022-11-18T15:54:54;7.75;;;2.10;;
42832;SDS011;64089;51.478;5.692;2022-11-18T15:57:19;5.85;;;1.55;;
42832;SDS011;64089;51.478;5.692;2022-11-18T15:59:45;5.88;;;2.85;;
42832;SDS011;64089;51.478;5.692;2022-11-18T16:02:11;3.85;;;1.77;;
42832;SDS011;64089;51.478;5.692;2022-11-18T16:04:37;7.20;;;2.58;;
42832;SDS011;64089;51.478;5.692;2022-11-18T16:07:03;7.28;;;2.90;;
42832;SDS011;64089;51.478;5.692;2022-11-18T16:09:29;3.63;;;1.85;;
42832;SDS011;64089;51.478;5.692;2022-11-18T16:12:14;7.07;;;2.10;;
42832;SDS011;64089;51.478;5.692;2022-11-18T16:14:59;4.70;;;2.17;;
42832;SDS011;64089;51.478;5.692;2022-11-18T16:17:51;3.90;;;2.03;;
42832;SDS011;64089;51.478;5.692;2022-11-18T16:20:16;4.65;;;3.03;;
42832;SDS011;64089;51.478;5.692;2022-11-18T16:22:42;7.03;;;4.78;;
42832;SDS011;64089;51.478;5.692;2022-11-18T16:25:07;9.63;;;4.80;;
42832;SDS011;64089;51.478;5.692;2022-11-18T16:27:34;5.60;;;3.13;;
42832;SDS011;64089;51.478;5.692;2022-11-18T16:30:00;4.13;;;2.83;;
42832;SDS011;64089;51.478;5.692;2022-11-18T16:32:28;8.85;;;3.80;;
42832;SDS011;64089;51.478;5.692;2022-11-18T16:34:54;9.27;;;3.10;;
42832;SDS011;64089;51.478;5.692;2022-11-18T16:37:21;5.30;;;2.95;;
42832;SDS011;64089;51.478;5.692;2022-11-18T16:39:47;5.35;;;2.50;;
42832;SDS011;64089;51.478;5.692;2022-11-18T16:42:12;8.23;;;3.70;;
42832;SDS011;64089;51.478;5.692;2022-11-18T16:44:38;8.77;;;3.40;;
42832;SDS011;64089;51.478;5.692;2022-11-18T16:47:04;6.32;;;3.70;;
42832;SDS011;64089;51.478;5.692;2022-11-18T16:49:30;4.57;;;3.20;;
42832;SDS011;64089;51.478;5.692;2022-11-18T16:51:56;8.25;;;3.75;;
42832;SDS011;64089;51.478;5.692;2022-11-18T16:54:29;6.40;;;3.80;;
42832;SDS011;64089;51.478;5.692;2022-11-18T16:56:56;9.95;;;4.53;;
42832;SDS011;64089;51.478;5.692;2022-11-18T16:59:23;7.22;;;3.88;;
42832;SDS011;64089;51.478;5.692;2022-11-18T17:01:51;9.38;;;4.25;;